Terminal Aerodrome Forecast
Issued by NWS

Home | Current Version | Previous Version | Text Only | Print | Product List | Glossary On
Versions: 1 2 3 4 5 6 7 8 9 10 11 12 13 14 15 16
000
FTUS42 TJSJ 221140
TAFJPS
TAF
TJPS 221140Z 2212/2312 07003KT P6SM SKC
     FM221430 13012G20KT P6SM FEW030
     FM222330 08007KT P6SM FEW030 SCT060=

USA.gov is the U.S. government's official web portal to all federal, state and local government web resources and services.